Time;durP1;ratioP1;P1;durP2;ratioP2;P2;SDS_P1;SDS_P2;PMS_P1;PMS_P2;Temp;Humidity;BMP_temperature;BMP_pressure;BME280_temperature;BME280_humidity;BME280_pressure;Samples;Min_cycle;Max_cycle;Signal;HPM_P1;HPM_P2
2022/10/22 00:00:52;;;;;;;;;;;;;;;;;;2106849;28;19954;-45
2022/10/22 00:01:53;;;;;;;;;;;;;;;;;;2106689;28;19927;-45
2022/10/22 00:02:54;;;;;;;;;;;;;;;;;;2106817;28;20284;-45
2022/10/22 00:03:54;;;;;;;;;;;;;;;;;;2106925;28;19934;-45
2022/10/22 00:04:56;;;;;;;;;;;;;;;;;;2106858;28;19974;-45
2022/10/22 00:05:56;;;;;;;;;;;;;;;;;;2106804;28;19920;-45
2022/10/22 00:06:57;;;;;;;;;;;;;;;;;;2106724;28;20005;-45
2022/10/22 00:07:58;;;;;;;;;;;;;;;;;;2106707;28;19930;-45
2022/10/22 00:08:59;;;;;;;;;;;;;;;;;;2106832;28;19970;-45
2022/10/22 00:09:59;;;;;;;;;;;;;;;;;;2103772;28;20030;-45
2022/10/22 00:11:00;;;;;;;;;;;;;;;;;;2098399;28;19924;-45
2022/10/22 00:12:01;;;;;;;;;;;;;;;;;;2098377;28;19967;-45
2022/10/22 00:13:02;;;;;;;;;;;;;;;;;;2098474;28;20356;-45
2022/10/22 00:14:03;;;;;;;;;;;;;;;;;;2098361;28;19920;-45
2022/10/22 00:15:04;;;;;;;;;;;;;;;;;;2098419;28;19921;-45
2022/10/22 00:16:04;;;;;;;;;;;;;;;;;;2098470;28;20281;-45
2022/10/22 00:17:05;;;;;;;;;;;;;;;;;;2098291;28;20284;-45
2022/10/22 00:18:08;;;;;;;;;;;;;;;;;;2098377;28;20325;-45
2022/10/22 00:19:10;;;;;;;;;;;;;;;;;;2098298;28;19927;-45
2022/10/22 00:20:10;;;;;;;;;;;;;;;;;;2098425;28;20344;-45
2022/10/22 00:21:11;;;;;;;;;;;;;;;;;;2098332;28;20013;-45
2022/10/22 00:22:12;;;;;;;;;;;;;;;;;;2098411;28;20285;-45
2022/10/22 00:23:13;;;;;;;;;;;;;;;;;;2098348;28;20288;-45
2022/10/22 00:24:14;;;;;;;;;;;;;;;;;;2098111;28;20025;-45
2022/10/22 00:25:15;;;;;;;;;;;;;;;;;;2097834;28;19927;-45
2022/10/22 00:26:16;;;;;;;;;;;;;;;;;;2098402;28;19920;-45
2022/10/22 00:27:17;;;;;;;;;;;;;;;;;;2098162;28;19966;-45
2022/10/22 00:28:17;;;;;;;;;;;;;;;;;;2098263;28;19951;-45
2022/10/22 00:29:19;;;;;;;;;;;;;;;;;;2098295;28;20324;-45
2022/10/22 00:30:20;;;;;;;;;;;;;;;;;;2098227;28;19925;-45
2022/10/22 00:31:21;;;;;;;;;;;;;;;;;;2098268;28;19982;-45
2022/10/22 00:32:22;;;;;;;;;;;;;;;;;;2098111;28;19924;-45
2022/10/22 00:33:23;;;;;;;;;;;;;;;;;;2098293;28;19926;-45
2022/10/22 00:34:23;;;;;;;;;;;;;;;;;;2098271;28;19998;-45
2022/10/22 00:35:24;;;;;;;;;;;;;;;;;;2098457;28;19921;-45
2022/10/22 00:36:25;;;;;;;;;;;;;;;;;;2098185;28;20029;-45
2022/10/22 00:37:26;;;;;;;;;;;;;;;;;;2098141;28;19920;-45
2022/10/22 00:38:27;;;;;;;;;;;;;;;;;;2098233;28;19942;-45
2022/10/22 00:39:27;;;;;;;;;;;;;;;;;;2098153;28;19972;-45
2022/10/22 00:40:28;;;;;;;;;;;;;;;;;;2098166;28;19943;-45
2022/10/22 00:41:29;;;;;;;;;;;;;;;;;;2098166;28;19951;-45
2022/10/22 00:42:30;;;;;;;;;;;;;;;;;;2098268;28;20333;-45
2022/10/22 00:43:31;;;;;;;;;;;;;;;;;;2098151;28;20293;-45
2022/10/22 00:44:31;;;;;;;;;;;;;;;;;;2098188;28;19927;-44
2022/10/22 00:45:32;;;;;;;;;;;;;;;;;;2098194;28;19934;-45
2022/10/22 00:46:33;;;;;;;;;;;;;;;;;;2098196;28;19921;-45
2022/10/22 00:47:34;;;;;;;;;;;;;;;;;;2098651;28;19920;-45
2022/10/22 00:48:35;;;;;;;;;;;;;;;;;;2106421;28;19920;-45
2022/10/22 00:49:35;;;;;;;;;;;;;;;;;;2106476;28;19920;-45
2022/10/22 00:50:36;;;;;;;;;;;;;;;;;;2106529;28;19920;-45
2022/10/22 00:51:37;;;;;;;;;;;;;;;;;;2106406;28;20018;-45
2022/10/22 00:52:38;;;;;;;;;;;;;;;;;;2106505;28;19927;-45
2022/10/22 00:53:39;;;;;;;;;;;;;;;;;;2106509;28;19956;-45
2022/10/22 00:54:40;;;;;;;;;;;;;;;;;;2106446;28;20379;-45
2022/10/22 00:55:41;;;;;;;;;;;;;;;;;;2098849;28;19924;-45
2022/10/22 00:56:41;;;;;;;;;;;;;;;;;;2098085;28;20423;-45
2022/10/22 00:57:42;;;;;;;;;;;;;;;;;;2098070;28;20365;-45
2022/10/22 00:58:43;;;;;;;;;;;;;;;;;;2098083;28;19956;-45
2022/10/22 00:59:44;;;;;;;;;;;;;;;;;;2098029;28;20386;-45
2022/10/22 01:00:45;;;;;;;;;;;;;;;;;;2098072;28;19920;-45
2022/10/22 01:01:46;;;;;;;;;;;;;;;;;;2098017;28;19960;-45
2022/10/22 01:02:46;;;;;;;;;;;;;;;;;;2098142;28;19969;-45
2022/10/22 01:03:47;;;;;;;;;;;;;;;;;;2098105;28;19920;-45
2022/10/22 01:04:48;;;;;;;;;;;;;;;;;;2098088;28;19927;-45
2022/10/22 01:05:49;;;;;;;;;;;;;;;;;;2098190;28;19969;-45
2022/10/22 01:06:49;;;;;;;;;;;;;;;;;;2097965;28;19920;-45
2022/10/22 01:07:50;;;;;;;;;;;;;;;;;;2098017;28;19970;-45
2022/10/22 01:08:51;;;;;;;;;;;;;;;;;;2098131;28;19931;-45
2022/10/22 01:09:52;;;;;;;;;;;;;;;;;;2097986;28;20408;-44
2022/10/22 01:10:53;;;;;;;;;;;;;;;;;;2098013;28;20284;-45
2022/10/22 01:11:54;;;;;;;;;;;;;;;;;;2097934;28;19920;-45
2022/10/22 01:12:54;;;;;;;;;;;;;;;;;;2098015;28;20015;-45
2022/10/22 01:13:55;;;;;;;;;;;;;;;;;;2097996;28;20269;-45
2022/10/22 01:14:56;;;;;;;;;;;;;;;;;;2097866;28;19928;-45
2022/10/22 01:15:57;;;;;;;;;;;;;;;;;;2098169;28;19924;-45
2022/10/22 01:16:58;;;;;;;;;;;;;;;;;;2097863;28;19970;-42
2022/10/22 01:17:59;;;;;;;;;;;;;;;;;;2098123;28;20015;-45
2022/10/22 01:18:59;;;;;;;;;;;;;;;;;;2098141;28;20293;-45
2022/10/22 01:20:00;;;;;;;;;;;;;;;;;;2097916;28;20546;-45
2022/10/22 01:21:01;;;;;;;;;;;;;;;;;;2098058;28;19924;-45
2022/10/22 01:22:02;;;;;;;;;;;;;;;;;;2097850;28;19928;-45
2022/10/22 01:23:03;;;;;;;;;;;;;;;;;;2097977;28;19921;-45
2022/10/22 01:24:04;;;;;;;;;;;;;;;;;;2098043;28;19928;-45
2022/10/22 01:25:04;;;;;;;;;;;;;;;;;;2098064;28;19970;-45
2022/10/22 01:26:05;;;;;;;;;;;;;;;;;;2098024;28;19920;-45
2022/10/22 01:27:06;;;;;;;;;;;;;;;;;;2098017;28;19920;-45
2022/10/22 01:28:07;;;;;;;;;;;;;;;;;;2097862;28;19920;-45
2022/10/22 01:29:07;;;;;;;;;;;;;;;;;;2097961;28;20380;-45
2022/10/22 01:30:08;;;;;;;;;;;;;;;;;;2098028;28;19959;-45
2022/10/22 01:31:09;;;;;;;;;;;;;;;;;;2097885;28;19943;-45
2022/10/22 01:32:10;;;;;;;;;;;;;;;;;;2097814;28;19920;-45
2022/10/22 01:33:11;;;;;;;;;;;;;;;;;;2097818;28;19932;-45
2022/10/22 01:34:12;;;;;;;;;;;;;;;;;;2097972;28;19959;-45
2022/10/22 01:35:12;;;;;;;;;;;;;;;;;;2097898;28;19929;-45
2022/10/22 01:36:13;;;;;;;;;;;;;;;;;;2097889;28;20297;-45
2022/10/22 01:37:14;;;;;;;;;;;;;;;;;;2098674;28;19928;-45
2022/10/22 01:38:15;;;;;;;;;;;;;;;;;;2099534;28;19927;-45
2022/10/22 01:39:15;;;;;;;;;;;;;;;;;;2099532;28;19920;-45
2022/10/22 01:40:16;;;;;;;;;;;;;;;;;;2099398;28;20166;-45
2022/10/22 01:41:17;;;;;;;;;;;;;;;;;;2099487;28;19958;-45
2022/10/22 01:42:18;;;;;;;;;;;;;;;;;;2099210;28;20373;-45
2022/10/22 01:43:19;;;;;;;;;;;;;;;;;;2099487;28;19921;-45
2022/10/22 01:44:20;;;;;;;;;;;;;;;;;;2103944;28;20015;-44
2022/10/22 01:45:20;;;;;;;;;;;;;;;;;;2107664;28;19973;-45
2022/10/22 01:46:21;;;;;;;;;;;;;;;;;;2107770;28;20015;-45
2022/10/22 01:47:22;;;;;;;;;;;;;;;;;;2107748;28;19919;-45
2022/10/22 01:48:23;;;;;;;;;;;;;;;;;;2107735;28;19920;-45
2022/10/22 01:49:24;;;;;;;;;;;;;;;;;;2107697;28;19966;-45
2022/10/22 01:50:24;;;;;;;;;;;;;;;;;;2107671;28;19923;-45
2022/10/22 01:51:25;;;;;;;;;;;;;;;;;;2104107;28;19920;-45
2022/10/22 01:52:26;;;;;;;;;;;;;;;;;;2099306;28;19920;-44
2022/10/22 01:53:27;;;;;;;;;;;;;;;;;;2099209;28;19971;-45
2022/10/22 01:54:28;;;;;;;;;;;;;;;;;;2099239;28;19924;-45
2022/10/22 01:55:29;;;;;;;;;;;;;;;;;;2099280;28;19956;-45
2022/10/22 01:56:29;;;;;;;;;;;;;;;;;;2099281;28;19924;-45
2022/10/22 01:57:30;;;;;;;;;;;;;;;;;;2099300;28;20258;-45
2022/10/22 01:58:31;;;;;;;;;;;;;;;;;;2099252;28;19924;-45
2022/10/22 01:59:32;;;;;;;;;;;;;;;;;;2099273;28;19967;-45
2022/10/22 02:00:33;;;;;;;;;;;;;;;;;;2099214;28;19920;-45
2022/10/22 02:01:34;;;;;;;;;;;;;;;;;;2099350;28;20462;-45
2022/10/22 02:02:35;;;;;;;;;;;;;;;;;;2099342;28;19920;-45
2022/10/22 02:03:35;;;;;;;;;;;;;;;;;;2099313;28;19952;-45
2022/10/22 02:04:36;;;;;;;;;;;;;;;;;;2099256;28;20270;-45
2022/10/22 02:05:37;;;;;;;;;;;;;;;;;;2099278;28;20354;-45
2022/10/22 02:06:38;;;;;;;;;;;;;;;;;;2099099;28;20003;-45
2022/10/22 02:07:39;;;;;;;;;;;;;;;;;;2099329;28;20011;-45
2022/10/22 02:08:40;;;;;;;;;;;;;;;;;;2099177;28;20388;-45
2022/10/22 02:09:41;;;;;;;;;;;;;;;;;;2099116;28;19971;-45
2022/10/22 02:10:41;;;;;;;;;;;;;;;;;;2099339;28;19947;-45
2022/10/22 02:11:42;;;;;;;;;;;;;;;;;;2099050;28;19921;-45
2022/10/22 02:12:43;;;;;;;;;;;;;;;;;;2099262;28;19920;-45
2022/10/22 02:13:44;;;;;;;;;;;;;;;;;;2099077;28;20357;-45
2022/10/22 02:14:45;;;;;;;;;;;;;;;;;;2099146;28;19920;-45
2022/10/22 02:15:46;;;;;;;;;;;;;;;;;;2099035;28;19927;-45
2022/10/22 02:16:46;;;;;;;;;;;;;;;;;;2099204;28;20007;-45
2022/10/22 02:17:47;;;;;;;;;;;;;;;;;;2099185;28;20014;-45
2022/10/22 02:18:48;;;;;;;;;;;;;;;;;;2099214;28;19920;-45
2022/10/22 02:19:49;;;;;;;;;;;;;;;;;;2099149;28;20069;-45
2022/10/22 02:20:49;;;;;;;;;;;;;;;;;;2099044;28;19956;-45
2022/10/22 02:21:50;;;;;;;;;;;;;;;;;;2098988;28;20366;-45
2022/10/22 02:22:51;;;;;;;;;;;;;;;;;;2099070;28;19925;-45
2022/10/22 02:23:52;;;;;;;;;;;;;;;;;;2099183;28;19959;-45
2022/10/22 02:24:53;;;;;;;;;;;;;;;;;;2099076;28;20348;-45
2022/10/22 02:25:54;;;;;;;;;;;;;;;;;;2099048;28;19931;-45
2022/10/22 02:26:54;;;;;;;;;;;;;;;;;;2099040;28;19920;-45
2022/10/22 02:27:55;;;;;;;;;;;;;;;;;;2099047;28;19920;-45
2022/10/22 02:28:56;;;;;;;;;;;;;;;;;;2099015;28;19920;-45
2022/10/22 02:29:57;;;;;;;;;;;;;;;;;;2099150;28;20240;-45
2022/10/22 02:30:58;;;;;;;;;;;;;;;;;;2099184;28;19925;-44
2022/10/22 02:31:59;;;;;;;;;;;;;;;;;;2099018;28;19946;-45
2022/10/22 02:32:59;;;;;;;;;;;;;;;;;;2098976;28;19927;-45
2022/10/22 02:34:01;;;;;;;;;;;;;;;;;;2098880;28;19920;-45
2022/10/22 02:35:01;;;;;;;;;;;;;;;;;;2099010;28;19924;-45
2022/10/22 02:36:02;;;;;;;;;;;;;;;;;;2098929;28;19920;-45
2022/10/22 02:37:03;;;;;;;;;;;;;;;;;;2099062;28;19921;-45
2022/10/22 02:38:04;;;;;;;;;;;;;;;;;;2098955;28;19927;-45
2022/10/22 02:39:04;;;;;;;;;;;;;;;;;;2098964;28;19920;-45
2022/10/22 02:40:05;;;;;;;;;;;;;;;;;;2099565;28;19921;-45
2022/10/22 02:41:06;;;;;;;;;;;;;;;;;;2107289;28;19920;-45
2022/10/22 02:42:07;;;;;;;;;;;;;;;;;;2107385;28;19926;-45
2022/10/22 02:43:08;;;;;;;;;;;;;;;;;;2107394;28;19927;-45
2022/10/22 02:44:08;;;;;;;;;;;;;;;;;;2107331;28;19920;-45
2022/10/22 02:45:09;;;;;;;;;;;;;;;;;;2107283;28;19920;-45
2022/10/22 02:46:10;;;;;;;;;;;;;;;;;;2107293;28;19920;-45
2022/10/22 02:47:11;;;;;;;;;;;;;;;;;;2107326;28;19924;-45
2022/10/22 02:48:12;;;;;;;;;;;;;;;;;;2106623;28;20372;-45
2022/10/22 02:49:12;;;;;;;;;;;;;;;;;;2107218;28;19978;-45
2022/10/22 02:50:13;;;;;;;;;;;;;;;;;;2107432;28;19958;-45
2022/10/22 02:51:14;;;;;;;;;;;;;;;;;;2107457;28;20434;-45
2022/10/22 02:52:15;;;;;;;;;;;;;;;;;;2107149;28;20269;-45
2022/10/22 02:53:16;;;;;;;;;;;;;;;;;;2107289;28;19920;-45
2022/10/22 02:54:17;;;;;;;;;;;;;;;;;;2107171;28;19962;-45
2022/10/22 02:55:17;;;;;;;;;;;;;;;;;;2107504;28;20323;-45
2022/10/22 02:56:18;;;;;;;;;;;;;;;;;;2107219;28;20019;-45
2022/10/22 02:57:19;;;;;;;;;;;;;;;;;;2107142;28;20384;-45
2022/10/22 02:58:21;;;;;;;;;;;;;;;;;;2107428;28;19920;-45
2022/10/22 02:59:22;;;;;;;;;;;;;;;;;;2107235;28;19923;-45
2022/10/22 03:00:22;;;;;;;;;;;;;;;;;;2107311;28;20011;-45
2022/10/22 03:01:23;;;;;;;;;;;;;;;;;;2107329;28;19943;-45
2022/10/22 03:02:24;;;;;;;;;;;;;;;;;;2107170;28;20387;-45
2022/10/22 03:03:25;;;;;;;;;;;;;;;;;;2107176;28;20339;-44
2022/10/22 03:04:26;;;;;;;;;;;;;;;;;;2107313;28;19981;-45
2022/10/22 03:05:26;;;;;;;;;;;;;;;;;;2107113;28;19920;-45
2022/10/22 03:06:27;;;;;;;;;;;;;;;;;;2107177;28;19969;-45
2022/10/22 03:07:28;;;;;;;;;;;;;;;;;;2107366;28;20829;-45
2022/10/22 03:08:29;;;;;;;;;;;;;;;;;;2107166;28;20055;-45
2022/10/22 03:09:30;;;;;;;;;;;;;;;;;;2107189;28;20006;-45
2022/10/22 03:10:31;;;;;;;;;;;;;;;;;;2099748;28;19924;-45
2022/10/22 03:11:31;;;;;;;;;;;;;;;;;;2098695;28;19932;-45
2022/10/22 03:12:32;;;;;;;;;;;;;;;;;;2098712;28;19921;-45
2022/10/22 03:13:33;;;;;;;;;;;;;;;;;;2098829;28;20400;-45
2022/10/22 03:14:34;;;;;;;;;;;;;;;;;;2098713;28;19964;-45
2022/10/22 03:15:35;;;;;;;;;;;;;;;;;;2098826;28;19927;-45
2022/10/22 03:16:36;;;;;;;;;;;;;;;;;;2098737;28;20007;-45
2022/10/22 03:17:36;;;;;;;;;;;;;;;;;;2098899;28;20250;-45
2022/10/22 03:18:38;;;;;;;;;;;;;;;;;;2098780;28;20010;-44
2022/10/22 03:19:38;;;;;;;;;;;;;;;;;;2098910;28;19920;-45
2022/10/22 03:20:39;;;;;;;;;;;;;;;;;;2098833;28;19973;-45
2022/10/22 03:21:40;;;;;;;;;;;;;;;;;;2098751;28;20426;-44
2022/10/22 03:22:41;;;;;;;;;;;;;;;;;;2098749;28;20375;-45
2022/10/22 03:23:41;;;;;;;;;;;;;;;;;;2098678;28;19924;-45
2022/10/22 03:24:42;;;;;;;;;;;;;;;;;;2098742;28;19958;-45
2022/10/22 03:25:43;;;;;;;;;;;;;;;;;;2098735;28;20407;-45
2022/10/22 03:26:44;;;;;;;;;;;;;;;;;;2098634;28;20010;-45
2022/10/22 03:27:45;;;;;;;;;;;;;;;;;;2098678;28;19927;-45
2022/10/22 03:28:47;;;;;;;;;;;;;;;;;;2098715;28;20308;-45
2022/10/22 03:29:47;;;;;;;;;;;;;;;;;;2098627;28;19927;-45
2022/10/22 03:30:48;;;;;;;;;;;;;;;;;;2098759;28;20396;-45
2022/10/22 03:31:49;;;;;;;;;;;;;;;;;;2098698;28;19921;-45
2022/10/22 03:32:50;;;;;;;;;;;;;;;;;;2098807;28;19925;-45
2022/10/22 03:33:51;;;;;;;;;;;;;;;;;;2098686;28;20358;-45
2022/10/22 03:34:52;;;;;;;;;;;;;;;;;;2098587;28;20364;-45
2022/10/22 03:35:52;;;;;;;;;;;;;;;;;;2098597;28;19920;-45
2022/10/22 03:36:53;;;;;;;;;;;;;;;;;;2103798;28;19920;-45
2022/10/22 03:37:54;;;;;;;;;;;;;;;;;;2106959;28;19920;-45
2022/10/22 03:38:55;;;;;;;;;;;;;;;;;;2107097;28;19999;-45
2022/10/22 03:39:56;;;;;;;;;;;;;;;;;;2107033;28;19963;-45
2022/10/22 03:40:56;;;;;;;;;;;;;;;;;;2107027;28;19927;-44
2022/10/22 03:41:57;;;;;;;;;;;;;;;;;;2107069;28;19924;-45
2022/10/22 03:42:58;;;;;;;;;;;;;;;;;;2106950;28;20726;-45
2022/10/22 03:43:59;;;;;;;;;;;;;;;;;;2106707;28;19924;-45
2022/10/22 03:45:00;;;;;;;;;;;;;;;;;;2107003;28;19920;-45
2022/10/22 03:46:01;;;;;;;;;;;;;;;;;;2107068;28;20392;-45
2022/10/22 03:47:02;;;;;;;;;;;;;;;;;;2106931;28;19931;-45
2022/10/22 03:48:03;;;;;;;;;;;;;;;;;;2107084;28;19920;-44
2022/10/22 03:49:04;;;;;;;;;;;;;;;;;;2106781;28;19975;-45
2022/10/22 03:50:04;;;;;;;;;;;;;;;;;;2106890;28;19920;-45
2022/10/22 03:51:05;;;;;;;;;;;;;;;;;;2106980;28;19970;-45
2022/10/22 03:52:06;;;;;;;;;;;;;;;;;;2106953;28;19920;-44
2022/10/22 03:53:09;;;;;;;;;;;;;;;;;;2106799;28;20266;-45
2022/10/22 03:54:10;;;;;;;;;;;;;;;;;;2106794;28;19920;-45
2022/10/22 03:55:11;;;;;;;;;;;;;;;;;;2106831;28;19920;-45
2022/10/22 03:56:11;;;;;;;;;;;;;;;;;;2106819;28;19954;-45
2022/10/22 03:57:12;;;;;;;;;;;;;;;;;;2106777;28;19920;-45
2022/10/22 03:58:13;;;;;;;;;;;;;;;;;;2106835;28;19924;-44
2022/10/22 03:59:14;;;;;;;;;;;;;;;;;;2106382;28;19920;-45
2022/10/22 04:00:14;;;;;;;;;;;;;;;;;;2106397;28;19927;-45
2022/10/22 04:01:15;;;;;;;;;;;;;;;;;;2106869;28;19982;-45
2022/10/22 04:02:16;;;;;;;;;;;;;;;;;;2106877;28;19920;-45
2022/10/22 04:03:17;;;;;;;;;;;;;;;;;;2106787;28;20359;-45
2022/10/22 04:04:18;;;;;;;;;;;;;;;;;;2106764;28;19927;-45
2022/10/22 04:05:19;;;;;;;;;;;;;;;;;;2106770;28;19950;-45
2022/10/22 04:06:19;;;;;;;;;;;;;;;;;;2106762;28;20376;-45
2022/10/22 04:07:20;;;;;;;;;;;;;;;;;;2106782;28;20018;-45
2022/10/22 04:08:21;;;;;;;;;;;;;;;;;;2106781;28;19920;-45
2022/10/22 04:09:22;;;;;;;;;;;;;;;;;;2106863;28;20066;-45
2022/10/22 04:10:23;;;;;;;;;;;;;;;;;;2100512;28;20399;-45
2022/10/22 04:11:23;;;;;;;;;;;;;;;;;;2098502;28;20258;-45
2022/10/22 04:12:24;;;;;;;;;;;;;;;;;;2098357;28;20061;-45
2022/10/22 04:13:25;;;;;;;;;;;;;;;;;;2098383;28;20293;-45
2022/10/22 04:14:26;;;;;;;;;;;;;;;;;;2098569;28;19927;-45
2022/10/22 04:15:27;;;;;;;;;;;;;;;;;;2098352;28;20453;-44
2022/10/22 04:16:30;;;;;;;;;;;;;;;;;;2098280;28;20262;-45
2022/10/22 04:17:31;;;;;;;;;;;;;;;;;;2098363;28;19921;-45
2022/10/22 04:18:31;;;;;;;;;;;;;;;;;;2098448;28;20357;-45
2022/10/22 04:19:32;;;;;;;;;;;;;;;;;;2098291;28;19960;-45
2022/10/22 04:20:33;;;;;;;;;;;;;;;;;;2098355;28;19921;-45
2022/10/22 04:21:34;;;;;;;;;;;;;;;;;;2098254;28;19928;-45
2022/10/22 04:22:35;;;;;;;;;;;;;;;;;;2098444;28;19963;-44
2022/10/22 04:23:36;;;;;;;;;;;;;;;;;;2098325;28;19920;-44
2022/10/22 04:24:37;;;;;;;;;;;;;;;;;;2098221;28;19956;-45
2022/10/22 04:25:37;;;;;;;;;;;;;;;;;;2098467;28;20113;-45
2022/10/22 04:26:38;;;;;;;;;;;;;;;;;;2098160;28;19966;-45
2022/10/22 04:27:39;;;;;;;;;;;;;;;;;;2098429;28;19920;-45
2022/10/22 04:28:40;;;;;;;;;;;;;;;;;;2098235;28;19927;-45
2022/10/22 04:29:41;;;;;;;;;;;;;;;;;;2098319;28;19921;-45
2022/10/22 04:30:42;;;;;;;;;;;;;;;;;;2098222;28;19964;-45
2022/10/22 04:31:42;;;;;;;;;;;;;;;;;;2098152;28;19920;-45
2022/10/22 04:32:43;;;;;;;;;;;;;;;;;;2099928;28;20019;-45
2022/10/22 04:33:44;;;;;;;;;;;;;;;;;;2106551;28;20307;-45
2022/10/22 04:34:45;;;;;;;;;;;;;;;;;;2106624;28;19927;-45
2022/10/22 04:35:46;;;;;;;;;;;;;;;;;;2106511;28;19927;-45
2022/10/22 04:36:46;;;;;;;;;;;;;;;;;;2106639;28;20375;-45
2022/10/22 04:37:47;;;;;;;;;;;;;;;;;;2106591;28;19927;-45
2022/10/22 04:38:48;;;;;;;;;;;;;;;;;;2106619;28;19920;-45
2022/10/22 04:39:49;;;;;;;;;;;;;;;;;;2106091;28;19922;-45
2022/10/22 04:40:50;;;;;;;;;;;;;;;;;;2098214;28;20015;-45
2022/10/22 04:41:50;;;;;;;;;;;;;;;;;;2098090;28;19978;-45
2022/10/22 04:42:51;;;;;;;;;;;;;;;;;;2098213;28;19943;-45
2022/10/22 04:43:52;;;;;;;;;;;;;;;;;;2098193;28;19924;-45
2022/10/22 04:44:53;;;;;;;;;;;;;;;;;;2098130;28;19974;-45
2022/10/22 04:45:54;;;;;;;;;;;;;;;;;;2098266;28;19920;-44
2022/10/22 04:46:55;;;;;;;;;;;;;;;;;;2098041;28;19920;-45
2022/10/22 04:47:55;;;;;;;;;;;;;;;;;;2098271;28;20003;-45
2022/10/22 04:48:56;;;;;;;;;;;;;;;;;;2098073;28;19969;-45
2022/10/22 04:49:57;;;;;;;;;;;;;;;;;;2098119;28;19920;-45
2022/10/22 04:50:59;;;;;;;;;;;;;;;;;;2098210;28;19959;-44
2022/10/22 04:52:00;;;;;;;;;;;;;;;;;;2098002;28;20259;-45
2022/10/22 04:53:01;;;;;;;;;;;;;;;;;;2098382;28;19951;-56
2022/10/22 04:54:01;;;;;;;;;;;;;;;;;;2098160;28;19924;-56
2022/10/22 04:55:02;;;;;;;;;;;;;;;;;;2098051;28;19974;-56
2022/10/22 04:56:03;;;;;;;;;;;;;;;;;;2098042;28;20022;-56
2022/10/22 04:57:04;;;;;;;;;;;;;;;;;;2098026;28;19920;-56
2022/10/22 04:58:05;;;;;;;;;;;;;;;;;;2098101;28;19965;-56
2022/10/22 04:59:06;;;;;;;;;;;;;;;;;;2098347;28;19943;-56
2022/10/22 05:00:06;;;;;;;;;;;;;;;;;;2098003;28;19924;-56
2022/10/22 05:01:07;;;;;;;;;;;;;;;;;;2098224;28;20356;-56
2022/10/22 05:02:08;;;;;;;;;;;;;;;;;;2098024;28;19960;-56
2022/10/22 05:03:09;;;;;;;;;;;;;;;;;;2098185;28;19981;-56
2022/10/22 05:04:10;;;;;;;;;;;;;;;;;;2098036;28;19989;-56
2022/10/22 05:05:11;;;;;;;;;;;;;;;;;;2098050;28;19921;-57
2022/10/22 05:06:12;;;;;;;;;;;;;;;;;;2098150;28;19970;-56
2022/10/22 05:07:18;;;;;;;;;;;;;;;;;;2097895;28;19921;-56
2022/10/22 05:08:18;;;;;;;;;;;;;;;;;;2098079;28;19920;-56
2022/10/22 05:09:19;;;;;;;;;;;;;;;;;;2098020;28;19921;-57
2022/10/22 05:10:20;;;;;;;;;;;;;;;;;;2097799;28;19921;-57
2022/10/22 05:11:21;;;;;;;;;;;;;;;;;;2097681;28;19921;-57
2022/10/22 05:12:22;;;;;;;;;;;;;;;;;;2097878;28;19924;-57
2022/10/22 05:13:22;;;;;;;;;;;;;;;;;;2098078;28;19960;-57
2022/10/22 05:14:23;;;;;;;;;;;;;;;;;;2097957;28;19969;-56
2022/10/22 05:15:24;;;;;;;;;;;;;;;;;;2098061;28;20011;-57
2022/10/22 05:16:25;;;;;;;;;;;;;;;;;;2097963;28;20333;-57
2022/10/22 05:17:26;;;;;;;;;;;;;;;;;;2097860;28;20015;-56
2022/10/22 05:18:26;;;;;;;;;;;;;;;;;;2097996;28;19921;-56
2022/10/22 05:19:28;;;;;;;;;;;;;;;;;;2098135;28;19920;-56
2022/10/22 05:20:29;;;;;;;;;;;;;;;;;;2097977;28;19958;-57
2022/10/22 05:21:30;;;;;;;;;;;;;;;;;;2097921;28;19963;-56
2022/10/22 05:22:30;;;;;;;;;;;;;;;;;;2098031;28;19939;-56
2022/10/22 05:23:31;;;;;;;;;;;;;;;;;;2097991;28;20155;-56
2022/10/22 05:24:32;;;;;;;;;;;;;;;;;;2097994;28;19966;-56
2022/10/22 05:25:33;;;;;;;;;;;;;;;;;;2098069;28;20254;-56
2022/10/22 05:26:33;;;;;;;;;;;;;;;;;;2097899;28;19924;-57
2022/10/22 05:27:34;;;;;;;;;;;;;;;;;;2097816;28;19975;-57
2022/10/22 05:28:35;;;;;;;;;;;;;;;;;;2097947;28;19921;-56
2022/10/22 05:29:36;;;;;;;;;;;;;;;;;;2104770;28;19935;-57
2022/10/22 05:30:37;;;;;;;;;;;;;;;;;;2106401;28;20003;-57
2022/10/22 05:31:38;;;;;;;;;;;;;;;;;;2106178;28;20014;-57
2022/10/22 05:32:38;;;;;;;;;;;;;;;;;;2106267;28;19920;-56
2022/10/22 05:33:39;;;;;;;;;;;;;;;;;;2106271;28;19963;-56
2022/10/22 05:34:40;;;;;;;;;;;;;;;;;;2106192;28;20288;-56
2022/10/22 05:35:41;;;;;;;;;;;;;;;;;;2106365;28;20003;-57
2022/10/22 05:36:47;;;;;;;;;;;;;;;;;;2099851;28;19943;-57
2022/10/22 05:37:47;;;;;;;;;;;;;;;;;;2097996;28;20413;-57
2022/10/22 05:38:48;;;;;;;;;;;;;;;;;;2097802;28;19960;-56
2022/10/22 05:39:49;;;;;;;;;;;;;;;;;;2097894;28;19920;-55
2022/10/22 05:40:58;;;;;;;;;;;;;;;;;;2097853;28;19920;-57
2022/10/22 05:41:58;;;;;;;;;;;;;;;;;;2098034;28;19982;-55
2022/10/22 05:42:59;;;;;;;;;;;;;;;;;;2097785;28;19979;-56
2022/10/22 05:44:00;;;;;;;;;;;;;;;;;;2097995;28;19927;-55
2022/10/22 05:45:01;;;;;;;;;;;;;;;;;;2097908;28;20308;-55
2022/10/22 05:46:02;;;;;;;;;;;;;;;;;;2097779;28;20369;-55
2022/10/22 05:47:03;;;;;;;;;;;;;;;;;;2097835;28;19927;-56
2022/10/22 05:48:04;;;;;;;;;;;;;;;;;;2097990;28;19920;-55
2022/10/22 05:49:05;;;;;;;;;;;;;;;;;;2097926;28;19927;-55
2022/10/22 05:50:06;;;;;;;;;;;;;;;;;;2097828;28;19920;-55
2022/10/22 05:51:07;;;;;;;;;;;;;;;;;;2097750;28;19986;-55
2022/10/22 05:52:07;;;;;;;;;;;;;;;;;;2097714;28;19920;-55
2022/10/22 05:53:08;;;;;;;;;;;;;;;;;;2097802;28;19920;-55
2022/10/22 05:54:11;;;;;;;;;;;;;;;;;;2097784;28;19921;-55
2022/10/22 05:55:12;;;;;;;;;;;;;;;;;;2097730;28;19931;-55
2022/10/22 05:56:13;;;;;;;;;;;;;;;;;;2097716;28;19970;-56
2022/10/22 05:57:14;;;;;;;;;;;;;;;;;;2097839;28;20023;-55
2022/10/22 05:58:15;;;;;;;;;;;;;;;;;;2097755;28;19920;-56
2022/10/22 05:59:16;;;;;;;;;;;;;;;;;;2097751;28;19971;-55
2022/10/22 06:00:16;;;;;;;;;;;;;;;;;;2097769;28;20392;-57
2022/10/22 06:01:17;;;;;;;;;;;;;;;;;;2097758;28;19963;-55
2022/10/22 06:02:18;;;;;;;;;;;;;;;;;;2097666;28;20443;-57
2022/10/22 06:03:19;;;;;;;;;;;;;;;;;;2097694;28;20420;-55
2022/10/22 06:04:20;;;;;;;;;;;;;;;;;;2097836;28;20015;-55
2022/10/22 06:05:21;;;;;;;;;;;;;;;;;;2097808;28;19920;-56
2022/10/22 06:06:22;;;;;;;;;;;;;;;;;;2097851;28;20278;-56
2022/10/22 06:07:23;;;;;;;;;;;;;;;;;;2097588;28;20333;-55
2022/10/22 06:08:23;;;;;;;;;;;;;;;;;;2097742;28;19920;-55
2022/10/22 06:09:24;;;;;;;;;;;;;;;;;;2097733;28;19920;-55
2022/10/22 06:10:25;;;;;;;;;;;;;;;;;;2097471;28;19935;-55
2022/10/22 06:11:26;;;;;;;;;;;;;;;;;;2097854;28;20305;-55
2022/10/22 06:12:29;;;;;;;;;;;;;;;;;;2097718;28;19927;-55
2022/10/22 06:13:31;;;;;;;;;;;;;;;;;;2097681;28;19920;-55
2022/10/22 06:14:32;;;;;;;;;;;;;;;;;;2097598;28;20271;-55
2022/10/22 06:15:33;;;;;;;;;;;;;;;;;;2097720;28;19920;-55
2022/10/22 06:16:34;;;;;;;;;;;;;;;;;;2097666;28;19920;-55
2022/10/22 06:17:35;;;;;;;;;;;;;;;;;;2097800;28;20342;-55
2022/10/22 06:18:35;;;;;;;;;;;;;;;;;;2097616;28;19920;-55
2022/10/22 06:19:36;;;;;;;;;;;;;;;;;;2097677;28;19928;-55
2022/10/22 06:20:37;;;;;;;;;;;;;;;;;;2097844;28;19931;-54
2022/10/22 06:21:38;;;;;;;;;;;;;;;;;;2097578;28;20289;-55
2022/10/22 06:22:39;;;;;;;;;;;;;;;;;;2097818;28;20293;-55
2022/10/22 06:23:40;;;;;;;;;;;;;;;;;;2099055;28;19974;-55
2022/10/22 06:24:41;;;;;;;;;;;;;;;;;;2099189;28;20490;-55
2022/10/22 06:25:43;;;;;;;;;;;;;;;;;;2104747;28;20006;-55
2022/10/22 06:26:44;;;;;;;;;;;;;;;;;;2107516;28;20372;-56
2022/10/22 06:27:45;;;;;;;;;;;;;;;;;;2107332;28;19943;-55
2022/10/22 06:28:45;;;;;;;;;;;;;;;;;;2107402;28;19928;-55
2022/10/22 06:29:46;;;;;;;;;;;;;;;;;;2107444;28;19952;-56
2022/10/22 06:30:47;;;;;;;;;;;;;;;;;;2107739;28;20276;-55
2022/10/22 06:31:48;;;;;;;;;;;;;;;;;;2107361;28;19978;-57
2022/10/22 06:32:48;;;;;;;;;;;;;;;;;;2102770;28;19970;-56
2022/10/22 06:33:49;;;;;;;;;;;;;;;;;;2099001;28;20057;-56
2022/10/22 06:34:50;;;;;;;;;;;;;;;;;;2098975;28;19920;-55
2022/10/22 06:35:51;;;;;;;;;;;;;;;;;;2099061;28;20320;-56
2022/10/22 06:36:52;;;;;;;;;;;;;;;;;;2098864;28;19924;-54
2022/10/22 06:37:53;;;;;;;;;;;;;;;;;;2099125;28;19921;-57
2022/10/22 06:38:54;;;;;;;;;;;;;;;;;;2098977;28;19924;-56
2022/10/22 06:39:55;;;;;;;;;;;;;;;;;;2098970;28;19952;-55
2022/10/22 06:40:55;;;;;;;;;;;;;;;;;;2099125;28;19921;-57
2022/10/22 06:41:56;;;;;;;;;;;;;;;;;;2098901;28;19920;-56
2022/10/22 06:42:57;;;;;;;;;;;;;;;;;;2098927;28;19920;-56
2022/10/22 06:43:58;;;;;;;;;;;;;;;;;;2099203;28;19924;-56
2022/10/22 06:44:59;;;;;;;;;;;;;;;;;;2099098;28;19931;-55
2022/10/22 06:46:01;;;;;;;;;;;;;;;;;;2103920;28;19942;-56
2022/10/22 06:47:01;;;;;;;;;;;;;;;;;;2106838;28;19927;-57
2022/10/22 06:48:02;;;;;;;;;;;;;;;;;;2106636;28;20369;-57
2022/10/22 06:49:04;;;;;;;;;;;;;;;;;;2106556;28;19920;-57
2022/10/22 06:50:05;;;;;;;;;;;;;;;;;;2106539;28;20334;-57
2022/10/22 06:51:06;;;;;;;;;;;;;;;;;;2106586;28;19959;-56
2022/10/22 06:52:07;;;;;;;;;;;;;;;;;;2106168;28;19967;-56
2022/10/22 06:53:07;;;;;;;;;;;;;;;;;;2106644;28;19919;-43
2022/10/22 06:54:08;;;;;;;;;;;;;;;;;;2106948;28;19973;-57
2022/10/22 06:55:09;;;;;;;;;;;;;;;;;;2107073;28;19920;-44
2022/10/22 06:56:10;;;;;;;;;;;;;;;;;;2107148;28;20298;-44